sensor_id;sensor_type;location;lat;lon;timestamp;pressure;altitude;pressure_sealevel;temperature;humidity
60049;BME280;66154;45.544;6.756;2024-02-14T00:04:28;87590.06;;;2.44;55.82
60049;BME280;66154;45.544;6.756;2024-02-14T00:09:29;87590.84;;;2.48;56.31
60049;BME280;66154;45.544;6.756;2024-02-14T00:14:29;87600.50;;;2.51;53.88
60049;BME280;66154;45.544;6.756;2024-02-14T00:19:30;87597.63;;;2.60;55.87
60049;BME280;66154;45.544;6.756;2024-02-14T00:24:31;87580.56;;;2.62;56.66
60049;BME280;66154;45.544;6.756;2024-02-14T00:29:32;87576.88;;;2.63;57.93
60049;BME280;66154;45.544;6.756;2024-02-14T00:34:34;87571.31;;;2.65;53.93
60049;BME280;66154;45.544;6.756;2024-02-14T00:39:34;87577.28;;;2.69;50.67
60049;BME280;66154;45.544;6.756;2024-02-14T00:44:35;87587.38;;;2.78;52.33
60049;BME280;66154;45.544;6.756;2024-02-14T00:49:36;87586.25;;;2.75;53.40
60049;BME280;66154;45.544;6.756;2024-02-14T00:54:37;87594.34;;;2.70;53.73
60049;BME280;66154;45.544;6.756;2024-02-14T00:59:38;87588.78;;;2.68;55.34
60049;BME280;66154;45.544;6.756;2024-02-14T01:04:39;87591.00;;;2.66;54.42
60049;BME280;66154;45.544;6.756;2024-02-14T01:09:39;87600.25;;;2.67;54.38
60049;BME280;66154;45.544;6.756;2024-02-14T01:14:40;87602.50;;;2.68;54.79
60049;BME280;66154;45.544;6.756;2024-02-14T01:19:40;87597.69;;;2.70;54.72
60049;BME280;66154;45.544;6.756;2024-02-14T01:24:41;87597.72;;;2.74;54.73
60049;BME280;66154;45.544;6.756;2024-02-14T01:29:43;87594.41;;;2.77;54.20
60049;BME280;66154;45.544;6.756;2024-02-14T01:34:44;87597.78;;;2.81;54.82
60049;BME280;66154;45.544;6.756;2024-02-14T01:39:44;87597.06;;;2.84;54.56
60049;BME280;66154;45.544;6.756;2024-02-14T01:44:45;87573.38;;;2.89;56.03
60049;BME280;66154;45.544;6.756;2024-02-14T01:49:46;87565.59;;;2.93;55.99
60049;BME280;66154;45.544;6.756;2024-02-14T01:54:47;87565.25;;;2.98;53.88
60049;BME280;66154;45.544;6.756;2024-02-14T01:59:49;87567.16;;;3.01;54.56
60049;BME280;66154;45.544;6.756;2024-02-14T02:04:50;87566.81;;;3.06;55.26
60049;BME280;66154;45.544;6.756;2024-02-14T02:09:51;87577.97;;;3.10;48.69
60049;BME280;66154;45.544;6.756;2024-02-14T02:14:51;87584.63;;;3.07;50.57
60049;BME280;66154;45.544;6.756;2024-02-14T02:19:55;87588.66;;;3.05;55.80
60049;BME280;66154;45.544;6.756;2024-02-14T02:24:55;87600.91;;;3.01;54.89
60049;BME280;66154;45.544;6.756;2024-02-14T02:29:56;87602.38;;;2.98;55.02
60049;BME280;66154;45.544;6.756;2024-02-14T02:34:56;87596.03;;;2.96;56.54
60049;BME280;66154;45.544;6.756;2024-02-14T02:39:58;87587.09;;;2.93;54.54
60049;BME280;66154;45.544;6.756;2024-02-14T02:44:58;87574.13;;;2.93;54.47
60049;BME280;66154;45.544;6.756;2024-02-14T02:49:59;87569.69;;;2.94;54.32
60049;BME280;66154;45.544;6.756;2024-02-14T02:55:03;87567.84;;;2.94;57.35
60049;BME280;66154;45.544;6.756;2024-02-14T03:00:06;87569.69;;;2.94;51.61
60049;BME280;66154;45.544;6.756;2024-02-14T03:05:08;87584.56;;;2.97;43.00
60049;BME280;66154;45.544;6.756;2024-02-14T03:10:11;87584.84;;;2.88;52.12
60049;BME280;66154;45.544;6.756;2024-02-14T03:15:14;87591.84;;;2.81;53.63
60049;BME280;66154;45.544;6.756;2024-02-14T03:20:15;87595.09;;;2.70;53.35
60049;BME280;66154;45.544;6.756;2024-02-14T03:25:19;87593.53;;;2.62;54.51
60049;BME280;66154;45.544;6.756;2024-02-14T03:30:19;87595.69;;;2.53;54.32
60049;BME280;66154;45.544;6.756;2024-02-14T03:35:20;87606.00;;;2.43;54.69
60049;BME280;66154;45.544;6.756;2024-02-14T03:40:22;87601.13;;;2.38;53.87
60049;BME280;66154;45.544;6.756;2024-02-14T03:45:22;87597.00;;;2.33;53.54
60049;BME280;66154;45.544;6.756;2024-02-14T03:50:23;87605.50;;;2.30;53.78
60049;BME280;66154;45.544;6.756;2024-02-14T03:55:24;87609.91;;;2.26;53.69
60049;BME280;66154;45.544;6.756;2024-02-14T04:00:25;87612.47;;;2.23;54.17
60049;BME280;66154;45.544;6.756;2024-02-14T04:05:25;87615.78;;;2.20;53.58
60049;BME280;66154;45.544;6.756;2024-02-14T04:10:29;87609.81;;;2.16;54.13
60049;BME280;66154;45.544;6.756;2024-02-14T04:15:31;87607.50;;;2.11;53.52
60049;BME280;66154;45.544;6.756;2024-02-14T04:20:31;87622.66;;;2.05;53.73
60049;BME280;66154;45.544;6.756;2024-02-14T04:25:32;87629.63;;;2.01;54.47
60049;BME280;66154;45.544;6.756;2024-02-14T04:30:32;87626.97;;;1.94;53.59
60049;BME280;66154;45.544;6.756;2024-02-14T04:35:33;87633.94;;;1.87;53.92
60049;BME280;66154;45.544;6.756;2024-02-14T04:40:34;87633.13;;;1.82;54.20
60049;BME280;66154;45.544;6.756;2024-02-14T04:45:35;87633.78;;;1.76;53.68
60049;BME280;66154;45.544;6.756;2024-02-14T04:50:36;87632.66;;;1.73;54.60
60049;BME280;66154;45.544;6.756;2024-02-14T04:55:37;87642.97;;;1.70;53.78
60049;BME280;66154;45.544;6.756;2024-02-14T05:00:37;87638.50;;;1.67;54.29
60049;BME280;66154;45.544;6.756;2024-02-14T05:05:39;87632.88;;;1.61;54.05
60049;BME280;66154;45.544;6.756;2024-02-14T05:10:39;87628.38;;;1.58;54.34
60049;BME280;66154;45.544;6.756;2024-02-14T05:15:40;87612.03;;;1.54;54.87
60049;BME280;66154;45.544;6.756;2024-02-14T05:20:41;87627.25;;;1.56;53.90
60049;BME280;66154;45.544;6.756;2024-02-14T05:25:42;87635.47;;;1.61;54.55
60049;BME280;66154;45.544;6.756;2024-02-14T05:30:43;87646.22;;;1.63;53.82
60049;BME280;66154;45.544;6.756;2024-02-14T05:35:45;87649.88;;;1.59;55.18
60049;BME280;66154;45.544;6.756;2024-02-14T05:40:47;87667.22;;;1.55;55.17
60049;BME280;66154;45.544;6.756;2024-02-14T05:45:48;87669.75;;;1.51;54.26
60049;BME280;66154;45.544;6.756;2024-02-14T05:50:49;87672.66;;;1.46;54.76
60049;BME280;66154;45.544;6.756;2024-02-14T05:55:49;87670.75;;;1.43;56.56
60049;BME280;66154;45.544;6.756;2024-02-14T06:00:50;87676.66;;;1.40;54.48
60049;BME280;66154;45.544;6.756;2024-02-14T06:05:51;87673.66;;;1.38;55.71
60049;BME280;66154;45.544;6.756;2024-02-14T06:10:51;87676.94;;;1.35;56.39
60049;BME280;66154;45.544;6.756;2024-02-14T06:15:52;87673.88;;;1.30;55.85
60049;BME280;66154;45.544;6.756;2024-02-14T06:20:52;87682.78;;;1.29;55.39
60049;BME280;66154;45.544;6.756;2024-02-14T06:25:53;87681.78;;;1.37;53.91
60049;BME280;66154;45.544;6.756;2024-02-14T06:30:54;87690.00;;;1.42;55.46
60049;BME280;66154;45.544;6.756;2024-02-14T06:35:55;87705.94;;;1.44;55.02
60049;BME280;66154;45.544;6.756;2024-02-14T06:40:55;87707.81;;;1.47;55.67
60049;BME280;66154;45.544;6.756;2024-02-14T06:45:57;87713.09;;;1.54;55.65
60049;BME280;66154;45.544;6.756;2024-02-14T06:50:57;87713.88;;;1.58;55.38
60049;BME280;66154;45.544;6.756;2024-02-14T06:55:58;87709.47;;;1.59;55.40
60049;BME280;66154;45.544;6.756;2024-02-14T07:00:58;87708.38;;;1.60;55.43
60049;BME280;66154;45.544;6.756;2024-02-14T07:06:00;87715.41;;;1.59;55.55
60049;BME280;66154;45.544;6.756;2024-02-14T07:11:00;87714.28;;;1.60;55.82
60049;BME280;66154;45.544;6.756;2024-02-14T07:16:01;87735.06;;;1.64;55.24
60049;BME280;66154;45.544;6.756;2024-02-14T07:21:01;87735.53;;;1.69;56.00
60049;BME280;66154;45.544;6.756;2024-02-14T07:26:02;87728.59;;;1.77;55.23
60049;BME280;66154;45.544;6.756;2024-02-14T07:31:03;87721.63;;;1.81;55.87
60049;BME280;66154;45.544;6.756;2024-02-14T07:36:04;87721.25;;;1.82;56.07
60049;BME280;66154;45.544;6.756;2024-02-14T07:41:04;87716.88;;;1.87;56.21
60049;BME280;66154;45.544;6.756;2024-02-14T07:46:05;87710.97;;;1.90;56.39
60049;BME280;66154;45.544;6.756;2024-02-14T07:51:07;87716.56;;;1.92;56.49
60049;BME280;66154;45.544;6.756;2024-02-14T07:56:08;87717.72;;;1.94;56.23
60049;BME280;66154;45.544;6.756;2024-02-14T08:01:09;87717.00;;;1.97;56.23
60049;BME280;66154;45.544;6.756;2024-02-14T08:06:10;87710.75;;;2.02;56.07
60049;BME280;66154;45.544;6.756;2024-02-14T08:11:10;87683.44;;;2.08;55.73
60049;BME280;66154;45.544;6.756;2024-02-14T08:16:11;87673.88;;;2.15;56.08
60049;BME280;66154;45.544;6.756;2024-02-14T08:21:12;87686.56;;;2.24;55.61
60049;BME280;66154;45.544;6.756;2024-02-14T08:26:16;87696.31;;;2.34;55.46
60049;BME280;66154;45.544;6.756;2024-02-14T08:31:16;87698.69;;;2.46;55.85
60049;BME280;66154;45.544;6.756;2024-02-14T08:36:17;87697.69;;;2.57;55.03
60049;BME280;66154;45.544;6.756;2024-02-14T08:41:19;87695.56;;;2.70;55.04
60049;BME280;66154;45.544;6.756;2024-02-14T08:46:19;87695.31;;;2.82;55.02
60049;BME280;66154;45.544;6.756;2024-02-14T08:51:20;87696.16;;;2.93;56.45
60049;BME280;66154;45.544;6.756;2024-02-14T08:56:21;87695.94;;;3.09;57.05
60049;BME280;66154;45.544;6.756;2024-02-14T09:01:24;87690.16;;;3.26;54.38
60049;BME280;66154;45.544;6.756;2024-02-14T09:06:26;87695.91;;;3.52;56.62
60049;BME280;66154;45.544;6.756;2024-02-14T09:11:27;87687.16;;;3.78;58.10
60049;BME280;66154;45.544;6.756;2024-02-14T09:16:27;87688.78;;;4.04;58.22
60049;BME280;66154;45.544;6.756;2024-02-14T09:21:28;87673.66;;;4.27;56.57
60049;BME280;66154;45.544;6.756;2024-02-14T09:26:29;87664.06;;;4.45;55.03
60049;BME280;66154;45.544;6.756;2024-02-14T09:31:29;87669.66;;;4.61;54.18
60049;BME280;66154;45.544;6.756;2024-02-14T09:36:30;87672.31;;;4.75;55.20
60049;BME280;66154;45.544;6.756;2024-02-14T09:41:37;87662.31;;;4.91;54.12
60049;BME280;66154;45.544;6.756;2024-02-14T09:46:41;87661.97;;;5.10;58.31
60049;BME280;66154;45.544;6.756;2024-02-14T09:51:44;87667.56;;;5.26;56.43
60049;BME280;66154;45.544;6.756;2024-02-14T09:56:50;87670.91;;;5.44;56.01
60049;BME280;66154;45.544;6.756;2024-02-14T10:01:53;87665.31;;;5.64;58.43
60049;BME280;66154;45.544;6.756;2024-02-14T10:06:54;87669.06;;;5.84;41.54
60049;BME280;66154;45.544;6.756;2024-02-14T10:11:54;87663.41;;;6.10;50.69
60049;BME280;66154;45.544;6.756;2024-02-14T10:16:55;87653.63;;;6.35;55.99
60049;BME280;66154;45.544;6.756;2024-02-14T10:21:57;87650.16;;;6.66;59.05
60049;BME280;66154;45.544;6.756;2024-02-14T10:27:01;87647.03;;;6.89;55.20
60049;BME280;66154;45.544;6.756;2024-02-14T10:32:01;87647.72;;;7.03;54.99
60049;BME280;66154;45.544;6.756;2024-02-14T10:37:02;87646.56;;;7.08;56.53
60049;BME280;66154;45.544;6.756;2024-02-14T10:42:03;87647.69;;;7.07;51.44
60049;BME280;66154;45.544;6.756;2024-02-14T10:47:06;87654.78;;;7.06;58.24
60049;BME280;66154;45.544;6.756;2024-02-14T10:52:11;87657.72;;;7.12;55.71
60049;BME280;66154;45.544;6.756;2024-02-14T10:57:12;87659.16;;;7.23;56.90
60049;BME280;66154;45.544;6.756;2024-02-14T11:02:13;87662.78;;;7.40;53.63
60049;BME280;66154;45.544;6.756;2024-02-14T11:07:16;87662.97;;;7.67;53.26
60049;BME280;66154;45.544;6.756;2024-02-14T11:12:18;87642.69;;;7.78;52.16
60049;BME280;66154;45.544;6.756;2024-02-14T11:17:23;87638.16;;;7.82;57.34
60049;BME280;66154;45.544;6.756;2024-02-14T11:22:34;87629.03;;;7.97;54.91
60049;BME280;66154;45.544;6.756;2024-02-14T11:27:35;87634.06;;;8.18;58.26
60049;BME280;66154;45.544;6.756;2024-02-14T11:32:36;87631.53;;;8.48;59.26
60049;BME280;66154;45.544;6.756;2024-02-14T11:37:40;87639.06;;;8.76;58.08
60049;BME280;66154;45.544;6.756;2024-02-14T11:42:40;87633.59;;;8.94;58.70
60049;BME280;66154;45.544;6.756;2024-02-14T11:47:41;87626.38;;;9.01;58.66
60049;BME280;66154;45.544;6.756;2024-02-14T11:52:41;87612.75;;;9.13;58.35
60049;BME280;66154;45.544;6.756;2024-02-14T11:57:42;87613.19;;;9.35;58.99
60049;BME280;66154;45.544;6.756;2024-02-14T12:02:43;87617.25;;;9.63;58.04
60049;BME280;66154;45.544;6.756;2024-02-14T12:07:43;87614.19;;;9.91;56.47
60049;BME280;66154;45.544;6.756;2024-02-14T12:12:45;87606.31;;;10.14;58.81
60049;BME280;66154;45.544;6.756;2024-02-14T12:17:47;87615.28;;;10.36;56.98
60049;BME280;66154;45.544;6.756;2024-02-14T12:22:51;87609.91;;;10.63;59.12
60049;BME280;66154;45.544;6.756;2024-02-14T12:27:52;87601.94;;;10.86;58.69
60049;BME280;66154;45.544;6.756;2024-02-14T12:32:59;87600.72;;;10.90;42.86
60049;BME280;66154;45.544;6.756;2024-02-14T12:38:01;87599.50;;;10.95;39.53
60049;BME280;66154;45.544;6.756;2024-02-14T12:43:02;87589.84;;;11.24;58.35
60049;BME280;66154;45.544;6.756;2024-02-14T12:48:03;87590.00;;;12.46;58.61
60049;BME280;66154;45.544;6.756;2024-02-14T12:53:05;87589.03;;;14.10;66.81
60049;BME280;66154;45.544;6.756;2024-02-14T12:58:06;87586.38;;;14.91;66.94
60049;BME280;66154;45.544;6.756;2024-02-14T13:03:07;87594.53;;;15.27;65.28
60049;BME280;66154;45.544;6.756;2024-02-14T13:08:08;87589.16;;;15.40;64.70
60049;BME280;66154;45.544;6.756;2024-02-14T13:13:11;87590.72;;;15.28;63.39
60049;BME280;66154;45.544;6.756;2024-02-14T13:18:13;87599.97;;;15.02;59.60
60049;BME280;66154;45.544;6.756;2024-02-14T13:23:13;87599.66;;;14.79;59.35
60049;BME280;66154;45.544;6.756;2024-02-14T13:28:14;87595.44;;;14.47;60.35
60049;BME280;66154;45.544;6.756;2024-02-14T13:33:15;87592.53;;;14.32;61.12
60049;BME280;66154;45.544;6.756;2024-02-14T13:38:15;87592.81;;;14.22;58.24
60049;BME280;66154;45.544;6.756;2024-02-14T13:43:17;87585.00;;;14.18;60.31
60049;BME280;66154;45.544;6.756;2024-02-14T13:48:18;87586.41;;;14.10;60.57
60049;BME280;66154;45.544;6.756;2024-02-14T13:53:20;87568.19;;;14.12;55.79
60049;BME280;66154;45.544;6.756;2024-02-14T13:58:23;87584.28;;;14.05;51.27
60049;BME280;66154;45.544;6.756;2024-02-14T14:03:23;87577.50;;;14.04;59.22
60049;BME280;66154;45.544;6.756;2024-02-14T14:08:24;87577.00;;;14.09;59.76
60049;BME280;66154;45.544;6.756;2024-02-14T14:13:24;87592.22;;;13.93;57.83
60049;BME280;66154;45.544;6.756;2024-02-14T14:18:29;87589.34;;;14.12;48.83
60049;BME280;66154;45.544;6.756;2024-02-14T14:23:29;87594.03;;;14.55;61.52
60049;BME280;66154;45.544;6.756;2024-02-14T14:28:30;87595.66;;;15.17;60.75
60049;BME280;66154;45.544;6.756;2024-02-14T14:33:32;87595.91;;;15.93;58.04
60049;BME280;66154;45.544;6.756;2024-02-14T14:38:32;87587.81;;;15.97;54.68
60049;BME280;66154;45.544;6.756;2024-02-14T14:43:33;87582.66;;;15.54;56.47
60049;BME280;66154;45.544;6.756;2024-02-14T14:48:33;87582.63;;;15.01;58.12
60049;BME280;66154;45.544;6.756;2024-02-14T14:53:34;87597.44;;;14.55;54.55
60049;BME280;66154;45.544;6.756;2024-02-14T14:58:35;87602.78;;;14.18;54.59
60049;BME280;66154;45.544;6.756;2024-02-14T15:03:36;87602.09;;;13.80;51.88
60049;BME280;66154;45.544;6.756;2024-02-14T15:08:37;87600.50;;;13.32;52.64
60049;BME280;66154;45.544;6.756;2024-02-14T15:13:38;87591.22;;;12.99;51.34
60049;BME280;66154;45.544;6.756;2024-02-14T15:18:39;87588.19;;;12.71;54.90
60049;BME280;66154;45.544;6.756;2024-02-14T15:23:42;87599.72;;;12.49;57.42
60049;BME280;66154;45.544;6.756;2024-02-14T15:28:42;87597.72;;;12.24;53.91
60049;BME280;66154;45.544;6.756;2024-02-14T15:33:45;87613.72;;;12.01;54.06
60049;BME280;66154;45.544;6.756;2024-02-14T15:38:46;87623.59;;;11.81;53.26
60049;BME280;66154;45.544;6.756;2024-02-14T15:43:46;87633.75;;;11.63;51.71
60049;BME280;66154;45.544;6.756;2024-02-14T15:48:47;87633.75;;;11.47;55.30
60049;BME280;66154;45.544;6.756;2024-02-14T15:53:47;87624.72;;;11.28;53.09
60049;BME280;66154;45.544;6.756;2024-02-14T15:58:48;87634.56;;;11.08;54.35
60049;BME280;66154;45.544;6.756;2024-02-14T16:03:48;87627.03;;;10.90;53.27
60049;BME280;66154;45.544;6.756;2024-02-14T16:08:49;87620.16;;;10.77;53.84
60049;BME280;66154;45.544;6.756;2024-02-14T16:13:53;87629.81;;;10.64;54.25
60049;BME280;66154;45.544;6.756;2024-02-14T16:18:53;87635.25;;;10.53;54.03
60049;BME280;66154;45.544;6.756;2024-02-14T16:23:54;87647.09;;;10.42;54.80
60049;BME280;66154;45.544;6.756;2024-02-14T16:28:55;87650.34;;;10.30;53.93
60049;BME280;66154;45.544;6.756;2024-02-14T16:33:55;87641.59;;;10.13;53.76
60049;BME280;66154;45.544;6.756;2024-02-14T16:38:56;87645.50;;;10.01;53.74
60049;BME280;66154;45.544;6.756;2024-02-14T16:43:56;87649.50;;;9.86;53.37
60049;BME280;66154;45.544;6.756;2024-02-14T16:48:58;87658.91;;;9.61;53.69
60049;BME280;66154;45.544;6.756;2024-02-14T16:53:58;87671.97;;;9.38;55.29
60049;BME280;66154;45.544;6.756;2024-02-14T16:58:59;87661.72;;;9.20;54.69
60049;BME280;66154;45.544;6.756;2024-02-14T17:04:00;87674.28;;;9.05;56.09
60049;BME280;66154;45.544;6.756;2024-02-14T17:09:01;87672.63;;;8.88;55.74
60049;BME280;66154;45.544;6.756;2024-02-14T17:14:03;87676.22;;;8.68;55.11
60049;BME280;66154;45.544;6.756;2024-02-14T17:19:07;87687.28;;;8.49;55.82
60049;BME280;66154;45.544;6.756;2024-02-14T17:24:08;87683.72;;;8.32;54.42
60049;BME280;66154;45.544;6.756;2024-02-14T17:29:09;87687.94;;;8.19;55.33
60049;BME280;66154;45.544;6.756;2024-02-14T17:34:10;87696.72;;;8.02;54.82
60049;BME280;66154;45.544;6.756;2024-02-14T17:39:11;87694.59;;;7.86;55.41
60049;BME280;66154;45.544;6.756;2024-02-14T17:44:11;87706.63;;;7.73;55.61
60049;BME280;66154;45.544;6.756;2024-02-14T17:49:13;87705.22;;;7.62;55.59
60049;BME280;66154;45.544;6.756;2024-02-14T17:54:14;87696.34;;;7.49;56.59
60049;BME280;66154;45.544;6.756;2024-02-14T17:59:15;87702.78;;;7.37;54.72
60049;BME280;66154;45.544;6.756;2024-02-14T18:04:15;87710.69;;;7.26;56.39
60049;BME280;66154;45.544;6.756;2024-02-14T18:09:17;87716.72;;;7.16;56.11
60049;BME280;66154;45.544;6.756;2024-02-14T18:14:17;87712.66;;;7.08;56.10
60049;BME280;66154;45.544;6.756;2024-02-14T18:19:18;87713.09;;;6.96;56.06
60049;BME280;66154;45.544;6.756;2024-02-14T18:24:19;87703.81;;;6.85;55.64
60049;BME280;66154;45.544;6.756;2024-02-14T18:29:19;87699.75;;;6.77;55.86
60049;BME280;66154;45.544;6.756;2024-02-14T18:34:20;87693.41;;;6.67;55.70
60049;BME280;66154;45.544;6.756;2024-02-14T18:39:20;87691.25;;;6.55;55.90
60049;BME280;66154;45.544;6.756;2024-02-14T18:44:21;87699.47;;;6.47;56.42
60049;BME280;66154;45.544;6.756;2024-02-14T18:49:22;87699.13;;;6.37;56.36
60049;BME280;66154;45.544;6.756;2024-02-14T18:54:23;87693.19;;;6.30;56.39
60049;BME280;66154;45.544;6.756;2024-02-14T18:59:25;87694.69;;;6.24;56.73
60049;BME280;66154;45.544;6.756;2024-02-14T19:04:25;87688.75;;;6.16;56.23
60049;BME280;66154;45.544;6.756;2024-02-14T19:09:27;87686.13;;;6.09;55.77
60049;BME280;66154;45.544;6.756;2024-02-14T19:14:29;87683.94;;;6.01;56.70
60049;BME280;66154;45.544;6.756;2024-02-14T19:19:29;87688.81;;;5.92;56.46
60049;BME280;66154;45.544;6.756;2024-02-14T19:24:32;87689.19;;;5.83;56.83
60049;BME280;66154;45.544;6.756;2024-02-14T19:29:33;87681.34;;;5.76;56.68
60049;BME280;66154;45.544;6.756;2024-02-14T19:34:33;87675.75;;;5.71;56.86
60049;BME280;66154;45.544;6.756;2024-02-14T19:39:34;87679.47;;;5.63;56.81
60049;BME280;66154;45.544;6.756;2024-02-14T19:44:34;87688.81;;;5.53;56.49
60049;BME280;66154;45.544;6.756;2024-02-14T19:49:35;87683.56;;;5.42;56.84
60049;BME280;66154;45.544;6.756;2024-02-14T19:54:35;87685.81;;;5.33;57.16
60049;BME280;66154;45.544;6.756;2024-02-14T19:59:36;87692.13;;;5.25;56.77
60049;BME280;66154;45.544;6.756;2024-02-14T20:04:37;87683.94;;;5.23;56.16
60049;BME280;66154;45.544;6.756;2024-02-14T20:09:38;87681.34;;;5.23;56.74
60049;BME280;66154;45.544;6.756;2024-02-14T20:14:38;87671.66;;;5.20;56.76
60049;BME280;66154;45.544;6.756;2024-02-14T20:19:40;87680.19;;;5.17;56.73
60049;BME280;66154;45.544;6.756;2024-02-14T20:24:41;87677.59;;;5.14;56.11
60049;BME280;66154;45.544;6.756;2024-02-14T20:29:42;87670.16;;;5.12;56.64
60049;BME280;66154;45.544;6.756;2024-02-14T20:34:43;87689.13;;;5.09;56.18
60049;BME280;66154;45.544;6.756;2024-02-14T20:39:46;87689.13;;;5.06;56.25
60049;BME280;66154;45.544;6.756;2024-02-14T20:44:47;87673.88;;;5.04;56.46
60049;BME280;66154;45.544;6.756;2024-02-14T20:49:47;87676.84;;;5.03;56.09
60049;BME280;66154;45.544;6.756;2024-02-14T20:54:48;87682.78;;;5.00;56.44
60049;BME280;66154;45.544;6.756;2024-02-14T20:59:49;87673.13;;;4.93;56.67
60049;BME280;66154;45.544;6.756;2024-02-14T21:04:49;87675.69;;;4.86;56.58
60049;BME280;66154;45.544;6.756;2024-02-14T21:09:50;87664.13;;;4.80;56.60
60049;BME280;66154;45.544;6.756;2024-02-14T21:14:51;87665.63;;;4.74;57.17
60049;BME280;66154;45.544;6.756;2024-02-14T21:19:51;87661.53;;;4.66;56.79
60049;BME280;66154;45.544;6.756;2024-02-14T21:24:52;87661.13;;;4.60;57.00
60049;BME280;66154;45.544;6.756;2024-02-14T21:29:53;87667.81;;;4.54;56.78
60049;BME280;66154;45.544;6.756;2024-02-14T21:34:53;87662.22;;;4.49;56.26
60049;BME280;66154;45.544;6.756;2024-02-14T21:39:54;87663.31;;;4.48;56.13
60049;BME280;66154;45.544;6.756;2024-02-14T21:44:54;87655.88;;;4.50;56.41
60049;BME280;66154;45.544;6.756;2024-02-14T21:49:55;87647.31;;;4.49;56.41
60049;BME280;66154;45.544;6.756;2024-02-14T21:54:56;87653.28;;;4.46;56.50
60049;BME280;66154;45.544;6.756;2024-02-14T21:59:57;87642.84;;;4.43;56.37
60049;BME280;66154;45.544;6.756;2024-02-14T22:04:58;87646.94;;;4.40;56.37
60049;BME280;66154;45.544;6.756;2024-02-14T22:09:58;87645.06;;;4.37;56.28
60049;BME280;66154;45.544;6.756;2024-02-14T22:14:59;87640.59;;;4.34;56.20
60049;BME280;66154;45.544;6.756;2024-02-14T22:20:00;87635.75;;;4.33;56.39
60049;BME280;66154;45.544;6.756;2024-02-14T22:25:01;87640.59;;;4.31;56.38
60049;BME280;66154;45.544;6.756;2024-02-14T22:30:02;87629.03;;;4.28;55.65
60049;BME280;66154;45.544;6.756;2024-02-14T22:35:05;87623.13;;;4.28;56.35
60049;BME280;66154;45.544;6.756;2024-02-14T22:40:07;87627.19;;;4.25;56.10
60049;BME280;66154;45.544;6.756;2024-02-14T22:45:08;87619.38;;;4.22;55.88
60049;BME280;66154;45.544;6.756;2024-02-14T22:50:11;87612.66;;;4.21;55.60
60049;BME280;66154;45.544;6.756;2024-02-14T22:55:12;87613.78;;;4.20;54.72
60049;BME280;66154;45.544;6.756;2024-02-14T23:00:13;87609.34;;;4.20;55.60
60049;BME280;66154;45.544;6.756;2024-02-14T23:05:17;87611.19;;;4.23;55.47
60049;BME280;66154;45.544;6.756;2024-02-14T23:10:21;87607.09;;;4.19;55.50
60049;BME280;66154;45.544;6.756;2024-02-14T23:15:23;87607.84;;;4.19;54.13
60049;BME280;66154;45.544;6.756;2024-02-14T23:20:23;87614.16;;;4.18;55.69
60049;BME280;66154;45.544;6.756;2024-02-14T23:25:24;87612.28;;;4.15;55.50
60049;BME280;66154;45.544;6.756;2024-02-14T23:30:25;87615.25;;;4.14;55.58
60049;BME280;66154;45.544;6.756;2024-02-14T23:35:25;87617.47;;;4.12;55.79
60049;BME280;66154;45.544;6.756;2024-02-14T23:40:27;87615.25;;;4.07;55.36
60049;BME280;66154;45.544;6.756;2024-02-14T23:45:30;87613.72;;;4.02;55.74
60049;BME280;66154;45.544;6.756;2024-02-14T23:50:30;87614.44;;;3.99;55.21
60049;BME280;66154;45.544;6.756;2024-02-14T23:55:31;87619.63;;;3.96;55.30
